sensor_id;sensor_type;location;lat;lon;timestamp;P1;durP1;ratioP1;P2;durP2;ratioP2
1206;SDS011;593;53.184;8.216;2023-04-24T00:00:19;3.33;;;3.10;;
1206;SDS011;593;53.184;8.216;2023-04-24T00:02:45;3.20;;;3.00;;
1206;SDS011;593;53.184;8.216;2023-04-24T00:05:12;3.27;;;2.97;;
1206;SDS011;593;53.184;8.216;2023-04-24T00:07:38;3.90;;;2.70;;
1206;SDS011;593;53.184;8.216;2023-04-24T00:10:04;4.33;;;2.43;;
1206;SDS011;593;53.184;8.216;2023-04-24T00:12:30;3.13;;;2.87;;
1206;SDS011;593;53.184;8.216;2023-04-24T00:14:55;2.70;;;2.50;;
1206;SDS011;593;53.184;8.216;2023-04-24T00:17:21;3.23;;;2.93;;
1206;SDS011;593;53.184;8.216;2023-04-24T00:19:46;2.17;;;2.07;;
1206;SDS011;593;53.184;8.216;2023-04-24T00:22:12;3.03;;;2.73;;
1206;SDS011;593;53.184;8.216;2023-04-24T00:24:38;2.93;;;2.63;;
1206;SDS011;593;53.184;8.216;2023-04-24T00:27:04;1.97;;;1.87;;
1206;SDS011;593;53.184;8.216;2023-04-24T00:29:29;1.50;;;1.40;;
1206;SDS011;593;53.184;8.216;2023-04-24T00:31:55;1.40;;;1.30;;
1206;SDS011;593;53.184;8.216;2023-04-24T00:34:20;1.50;;;1.40;;
1206;SDS011;593;53.184;8.216;2023-04-24T00:36:45;1.00;;;1.00;;
1206;SDS011;593;53.184;8.216;2023-04-24T00:39:11;4.33;;;0.97;;
1206;SDS011;593;53.184;8.216;2023-04-24T00:41:36;1.00;;;0.90;;
1206;SDS011;593;53.184;8.216;2023-04-24T00:44:02;0.87;;;0.87;;
1206;SDS011;593;53.184;8.216;2023-04-24T00:46:27;0.80;;;0.80;;
1206;SDS011;593;53.184;8.216;2023-04-24T00:48:53;0.70;;;0.70;;
1206;SDS011;593;53.184;8.216;2023-04-24T00:51:19;0.70;;;0.60;;
1206;SDS011;593;53.184;8.216;2023-04-24T00:53:44;1.07;;;1.07;;
1206;SDS011;593;53.184;8.216;2023-04-24T00:56:10;0.70;;;0.70;;
1206;SDS011;593;53.184;8.216;2023-04-24T00:58:35;1.00;;;0.80;;
1206;SDS011;593;53.184;8.216;2023-04-24T01:01:01;0.80;;;0.80;;
1206;SDS011;593;53.184;8.216;2023-04-24T01:03:28;1.10;;;0.80;;
1206;SDS011;593;53.184;8.216;2023-04-24T01:05:58;0.80;;;0.80;;
1206;SDS011;593;53.184;8.216;2023-04-24T01:08:24;0.80;;;0.80;;
1206;SDS011;593;53.184;8.216;2023-04-24T01:10:51;1.00;;;1.00;;
1206;SDS011;593;53.184;8.216;2023-04-24T01:13:18;1.10;;;1.10;;
1206;SDS011;593;53.184;8.216;2023-04-24T01:15:44;1.13;;;1.03;;
1206;SDS011;593;53.184;8.216;2023-04-24T01:18:10;0.90;;;0.90;;
1206;SDS011;593;53.184;8.216;2023-04-24T01:20:35;1.27;;;1.17;;
1206;SDS011;593;53.184;8.216;2023-04-24T01:23:04;1.20;;;1.13;;
1206;SDS011;593;53.184;8.216;2023-04-24T01:25:30;1.00;;;1.00;;
1206;SDS011;593;53.184;8.216;2023-04-24T01:27:56;1.37;;;1.27;;
1206;SDS011;593;53.184;8.216;2023-04-24T01:30:21;1.93;;;1.20;;
1206;SDS011;593;53.184;8.216;2023-04-24T01:32:46;1.20;;;1.10;;
1206;SDS011;593;53.184;8.216;2023-04-24T01:35:13;1.40;;;1.30;;
1206;SDS011;593;53.184;8.216;2023-04-24T01:37:39;0.90;;;0.90;;
1206;SDS011;593;53.184;8.216;2023-04-24T01:40:05;1.67;;;1.57;;
1206;SDS011;593;53.184;8.216;2023-04-24T01:42:31;1.00;;;1.00;;
1206;SDS011;593;53.184;8.216;2023-04-24T01:44:57;0.90;;;0.90;;
1206;SDS011;593;53.184;8.216;2023-04-24T01:47:22;1.20;;;1.10;;
1206;SDS011;593;53.184;8.216;2023-04-24T01:49:49;1.30;;;1.00;;
1206;SDS011;593;53.184;8.216;2023-04-24T01:52:15;1.60;;;1.10;;
1206;SDS011;593;53.184;8.216;2023-04-24T01:54:41;1.17;;;1.07;;
1206;SDS011;593;53.184;8.216;2023-04-24T01:57:06;1.40;;;1.30;;
1206;SDS011;593;53.184;8.216;2023-04-24T01:59:32;1.37;;;1.27;;
1206;SDS011;593;53.184;8.216;2023-04-24T02:01:58;4.83;;;1.33;;
1206;SDS011;593;53.184;8.216;2023-04-24T02:04:23;1.73;;;1.63;;
1206;SDS011;593;53.184;8.216;2023-04-24T02:06:49;1.37;;;1.27;;
1206;SDS011;593;53.184;8.216;2023-04-24T02:09:14;1.93;;;1.77;;
1206;SDS011;593;53.184;8.216;2023-04-24T02:11:39;1.80;;;1.70;;
1206;SDS011;593;53.184;8.216;2023-04-24T02:14:05;2.20;;;2.10;;
1206;SDS011;593;53.184;8.216;2023-04-24T02:16:30;1.63;;;1.53;;
1206;SDS011;593;53.184;8.216;2023-04-24T02:18:57;2.57;;;2.33;;
1206;SDS011;593;53.184;8.216;2023-04-24T02:21:22;2.30;;;2.10;;
1206;SDS011;593;53.184;8.216;2023-04-24T02:23:48;2.97;;;2.87;;
1206;SDS011;593;53.184;8.216;2023-04-24T02:26:13;3.07;;;2.73;;
1206;SDS011;593;53.184;8.216;2023-04-24T02:28:38;3.07;;;2.87;;
1206;SDS011;593;53.184;8.216;2023-04-24T02:31:04;2.90;;;2.80;;
1206;SDS011;593;53.184;8.216;2023-04-24T02:33:30;2.60;;;2.50;;
1206;SDS011;593;53.184;8.216;2023-04-24T02:35:55;2.73;;;2.63;;
1206;SDS011;593;53.184;8.216;2023-04-24T02:38:20;2.77;;;2.47;;
1206;SDS011;593;53.184;8.216;2023-04-24T02:40:46;2.63;;;2.53;;
1206;SDS011;593;53.184;8.216;2023-04-24T02:43:11;3.20;;;3.00;;
1206;SDS011;593;53.184;8.216;2023-04-24T02:45:36;2.30;;;2.20;;
1206;SDS011;593;53.184;8.216;2023-04-24T02:48:03;2.80;;;2.63;;
1206;SDS011;593;53.184;8.216;2023-04-24T02:50:28;2.33;;;2.23;;
1206;SDS011;593;53.184;8.216;2023-04-24T02:52:54;2.70;;;2.50;;
1206;SDS011;593;53.184;8.216;2023-04-24T02:55:19;2.20;;;2.10;;
1206;SDS011;593;53.184;8.216;2023-04-24T02:57:44;2.30;;;2.20;;
1206;SDS011;593;53.184;8.216;2023-04-24T03:00:10;3.27;;;2.73;;
1206;SDS011;593;53.184;8.216;2023-04-24T03:02:36;2.93;;;2.73;;
1206;SDS011;593;53.184;8.216;2023-04-24T03:05:01;3.30;;;2.90;;
1206;SDS011;593;53.184;8.216;2023-04-24T03:07:27;2.97;;;2.80;;
1206;SDS011;593;53.184;8.216;2023-04-24T03:09:52;3.20;;;2.90;;
1206;SDS011;593;53.184;8.216;2023-04-24T03:12:18;3.53;;;3.30;;
1206;SDS011;593;53.184;8.216;2023-04-24T03:14:43;3.17;;;2.97;;
1206;SDS011;593;53.184;8.216;2023-04-24T03:17:09;3.57;;;3.27;;
1206;SDS011;593;53.184;8.216;2023-04-24T03:19:34;4.43;;;2.93;;
1206;SDS011;593;53.184;8.216;2023-04-24T03:22:01;3.90;;;3.50;;
1206;SDS011;593;53.184;8.216;2023-04-24T03:24:27;3.40;;;3.17;;
1206;SDS011;593;53.184;8.216;2023-04-24T03:26:53;3.63;;;3.33;;
1206;SDS011;593;53.184;8.216;2023-04-24T03:29:18;3.20;;;2.93;;
1206;SDS011;593;53.184;8.216;2023-04-24T03:31:43;3.13;;;2.83;;
1206;SDS011;593;53.184;8.216;2023-04-24T03:34:09;2.60;;;2.40;;
1206;SDS011;593;53.184;8.216;2023-04-24T03:36:34;3.90;;;3.50;;
1206;SDS011;593;53.184;8.216;2023-04-24T03:39:00;4.07;;;3.77;;
1206;SDS011;593;53.184;8.216;2023-04-24T03:41:25;2.83;;;2.63;;
1206;SDS011;593;53.184;8.216;2023-04-24T03:43:50;3.30;;;3.00;;
1206;SDS011;593;53.184;8.216;2023-04-24T03:46:16;4.10;;;3.20;;
1206;SDS011;593;53.184;8.216;2023-04-24T03:48:41;3.13;;;2.83;;
1206;SDS011;593;53.184;8.216;2023-04-24T03:51:06;3.07;;;2.87;;
1206;SDS011;593;53.184;8.216;2023-04-24T03:53:32;2.60;;;2.40;;
1206;SDS011;593;53.184;8.216;2023-04-24T03:55:57;3.73;;;3.40;;
1206;SDS011;593;53.184;8.216;2023-04-24T03:58:22;3.57;;;3.27;;
1206;SDS011;593;53.184;8.216;2023-04-24T04:00:48;4.30;;;3.30;;
1206;SDS011;593;53.184;8.216;2023-04-24T04:03:14;4.37;;;3.40;;
1206;SDS011;593;53.184;8.216;2023-04-24T04:05:39;3.40;;;3.20;;
1206;SDS011;593;53.184;8.216;2023-04-24T04:08:05;2.13;;;2.00;;
1206;SDS011;593;53.184;8.216;2023-04-24T04:10:31;2.90;;;2.70;;
1206;SDS011;593;53.184;8.216;2023-04-24T04:12:56;3.07;;;2.77;;
1206;SDS011;593;53.184;8.216;2023-04-24T04:15:21;3.60;;;3.30;;
1206;SDS011;593;53.184;8.216;2023-04-24T04:17:46;3.23;;;2.83;;
1206;SDS011;593;53.184;8.216;2023-04-24T04:20:12;2.90;;;2.70;;
1206;SDS011;593;53.184;8.216;2023-04-24T04:22:38;3.67;;;3.37;;
1206;SDS011;593;53.184;8.216;2023-04-24T04:25:04;2.60;;;2.40;;
1206;SDS011;593;53.184;8.216;2023-04-24T04:27:29;3.30;;;3.00;;
1206;SDS011;593;53.184;8.216;2023-04-24T04:29:57;2.93;;;2.67;;
1206;SDS011;593;53.184;8.216;2023-04-24T04:32:24;2.77;;;2.57;;
1206;SDS011;593;53.184;8.216;2023-04-24T04:34:49;2.87;;;2.67;;
1206;SDS011;593;53.184;8.216;2023-04-24T04:37:18;3.70;;;3.40;;
1206;SDS011;593;53.184;8.216;2023-04-24T04:39:43;3.07;;;2.87;;
1206;SDS011;593;53.184;8.216;2023-04-24T04:42:09;4.07;;;3.77;;
1206;SDS011;593;53.184;8.216;2023-04-24T04:44:34;2.90;;;2.70;;
1206;SDS011;593;53.184;8.216;2023-04-24T04:47:00;3.70;;;3.40;;
1206;SDS011;593;53.184;8.216;2023-04-24T04:49:28;3.40;;;3.20;;
1206;SDS011;593;53.184;8.216;2023-04-24T04:51:54;4.20;;;3.23;;
1206;SDS011;593;53.184;8.216;2023-04-24T04:54:19;3.97;;;3.67;;
1206;SDS011;593;53.184;8.216;2023-04-24T04:56:44;4.60;;;3.27;;
1206;SDS011;593;53.184;8.216;2023-04-24T04:59:10;3.77;;;3.30;;
1206;SDS011;593;53.184;8.216;2023-04-24T05:01:35;4.03;;;3.50;;
1206;SDS011;593;53.184;8.216;2023-04-24T05:04:01;4.07;;;3.77;;
1206;SDS011;593;53.184;8.216;2023-04-24T05:06:26;4.47;;;4.07;;
1206;SDS011;593;53.184;8.216;2023-04-24T05:08:52;3.73;;;3.43;;
1206;SDS011;593;53.184;8.216;2023-04-24T05:11:22;4.60;;;4.20;;
1206;SDS011;593;53.184;8.216;2023-04-24T05:13:47;4.83;;;4.33;;
1206;SDS011;593;53.184;8.216;2023-04-24T05:16:12;4.33;;;3.93;;
1206;SDS011;593;53.184;8.216;2023-04-24T05:18:38;6.30;;;4.07;;
1206;SDS011;593;53.184;8.216;2023-04-24T05:21:03;4.47;;;4.07;;
1206;SDS011;593;53.184;8.216;2023-04-24T05:23:29;4.93;;;4.53;;
1206;SDS011;593;53.184;8.216;2023-04-24T05:25:54;4.33;;;3.93;;
1206;SDS011;593;53.184;8.216;2023-04-24T05:28:19;4.70;;;4.30;;
1206;SDS011;593;53.184;8.216;2023-04-24T05:30:45;5.70;;;4.20;;
1206;SDS011;593;53.184;8.216;2023-04-24T05:33:11;4.63;;;4.17;;
1206;SDS011;593;53.184;8.216;2023-04-24T05:35:36;4.37;;;3.83;;
1206;SDS011;593;53.184;8.216;2023-04-24T05:38:01;4.30;;;3.90;;
1206;SDS011;593;53.184;8.216;2023-04-24T05:40:27;7.00;;;4.77;;
1206;SDS011;593;53.184;8.216;2023-04-24T05:42:52;5.30;;;4.90;;
1206;SDS011;593;53.184;8.216;2023-04-24T05:45:17;5.00;;;4.17;;
1206;SDS011;593;53.184;8.216;2023-04-24T05:47:43;5.00;;;4.60;;
1206;SDS011;593;53.184;8.216;2023-04-24T05:50:09;4.87;;;4.47;;
1206;SDS011;593;53.184;8.216;2023-04-24T05:52:36;5.40;;;4.83;;
1206;SDS011;593;53.184;8.216;2023-04-24T05:55:02;6.00;;;4.60;;
1206;SDS011;593;53.184;8.216;2023-04-24T05:57:28;5.50;;;5.00;;
1206;SDS011;593;53.184;8.216;2023-04-24T05:59:59;4.53;;;4.13;;
1206;SDS011;593;53.184;8.216;2023-04-24T06:02:37;4.93;;;4.53;;
1206;SDS011;593;53.184;8.216;2023-04-24T06:05:02;6.40;;;4.97;;
1206;SDS011;593;53.184;8.216;2023-04-24T06:07:29;7.93;;;5.30;;
1206;SDS011;593;53.184;8.216;2023-04-24T06:09:55;4.83;;;4.43;;
1206;SDS011;593;53.184;8.216;2023-04-24T06:12:20;7.17;;;4.93;;
1206;SDS011;593;53.184;8.216;2023-04-24T06:14:46;7.47;;;5.60;;
1206;SDS011;593;53.184;8.216;2023-04-24T06:17:11;5.47;;;4.97;;
1206;SDS011;593;53.184;8.216;2023-04-24T06:19:37;6.30;;;5.67;;
1206;SDS011;593;53.184;8.216;2023-04-24T06:22:02;4.90;;;4.43;;
1206;SDS011;593;53.184;8.216;2023-04-24T06:24:28;5.83;;;5.23;;
1206;SDS011;593;53.184;8.216;2023-04-24T06:26:53;5.20;;;4.53;;
1206;SDS011;593;53.184;8.216;2023-04-24T06:29:19;5.60;;;4.70;;
1206;SDS011;593;53.184;8.216;2023-04-24T06:31:44;4.93;;;4.43;;
1206;SDS011;593;53.184;8.216;2023-04-24T06:34:09;5.00;;;4.50;;
1206;SDS011;593;53.184;8.216;2023-04-24T06:36:35;6.20;;;5.47;;
1206;SDS011;593;53.184;8.216;2023-04-24T06:39:00;5.47;;;4.97;;
1206;SDS011;593;53.184;8.216;2023-04-24T06:41:26;5.50;;;5.07;;
1206;SDS011;593;53.184;8.216;2023-04-24T06:43:51;5.00;;;4.50;;
1206;SDS011;593;53.184;8.216;2023-04-24T06:46:17;4.80;;;4.37;;
1206;SDS011;593;53.184;8.216;2023-04-24T06:48:42;6.87;;;4.70;;
1206;SDS011;593;53.184;8.216;2023-04-24T06:51:08;5.77;;;5.20;;
1206;SDS011;593;53.184;8.216;2023-04-24T06:53:34;5.97;;;5.30;;
1206;SDS011;593;53.184;8.216;2023-04-24T06:55:59;6.17;;;5.47;;
1206;SDS011;593;53.184;8.216;2023-04-24T06:58:24;6.40;;;4.97;;
1206;SDS011;593;53.184;8.216;2023-04-24T07:00:50;5.70;;;5.20;;
1206;SDS011;593;53.184;8.216;2023-04-24T07:03:15;8.30;;;5.07;;
1206;SDS011;593;53.184;8.216;2023-04-24T07:05:41;6.37;;;5.63;;
1206;SDS011;593;53.184;8.216;2023-04-24T07:08:06;6.00;;;5.40;;
1206;SDS011;593;53.184;8.216;2023-04-24T07:10:32;5.37;;;4.57;;
1206;SDS011;593;53.184;8.216;2023-04-24T07:12:59;6.80;;;5.33;;
1206;SDS011;593;53.184;8.216;2023-04-24T07:15:24;6.07;;;5.57;;
1206;SDS011;593;53.184;8.216;2023-04-24T07:17:49;5.10;;;4.70;;
1206;SDS011;593;53.184;8.216;2023-04-24T07:20:15;5.10;;;4.60;;
1206;SDS011;593;53.184;8.216;2023-04-24T07:22:41;6.37;;;5.73;;
1206;SDS011;593;53.184;8.216;2023-04-24T07:25:06;7.77;;;5.37;;
1206;SDS011;593;53.184;8.216;2023-04-24T07:27:33;7.40;;;5.90;;
1206;SDS011;593;53.184;8.216;2023-04-24T07:29:59;5.73;;;5.20;;
1206;SDS011;593;53.184;8.216;2023-04-24T07:32:25;8.30;;;6.70;;
1206;SDS011;593;53.184;8.216;2023-04-24T07:34:50;8.27;;;6.73;;
1206;SDS011;593;53.184;8.216;2023-04-24T07:37:16;6.93;;;5.77;;
1206;SDS011;593;53.184;8.216;2023-04-24T07:39:41;7.00;;;6.30;;
1206;SDS011;593;53.184;8.216;2023-04-24T07:42:07;11.20;;;6.50;;
1206;SDS011;593;53.184;8.216;2023-04-24T07:44:32;8.93;;;7.30;;
1206;SDS011;593;53.184;8.216;2023-04-24T07:46:57;6.80;;;6.00;;
1206;SDS011;593;53.184;8.216;2023-04-24T07:49:23;5.53;;;5.13;;
1206;SDS011;593;53.184;8.216;2023-04-24T07:51:49;6.30;;;5.73;;
1206;SDS011;593;53.184;8.216;2023-04-24T07:54:15;7.57;;;5.70;;
1206;SDS011;593;53.184;8.216;2023-04-24T07:56:40;7.90;;;7.10;;
1206;SDS011;593;53.184;8.216;2023-04-24T07:59:07;7.07;;;6.37;;
1206;SDS011;593;53.184;8.216;2023-04-24T08:01:34;5.60;;;5.10;;
1206;SDS011;593;53.184;8.216;2023-04-24T08:04:00;9.43;;;6.53;;
1206;SDS011;593;53.184;8.216;2023-04-24T08:06:25;6.70;;;6.10;;
1206;SDS011;593;53.184;8.216;2023-04-24T08:08:55;8.80;;;5.30;;
1206;SDS011;593;53.184;8.216;2023-04-24T08:11:20;7.43;;;6.17;;
1206;SDS011;593;53.184;8.216;2023-04-24T08:13:45;6.07;;;5.47;;
1206;SDS011;593;53.184;8.216;2023-04-24T08:16:11;6.50;;;5.90;;
1206;SDS011;593;53.184;8.216;2023-04-24T08:18:36;8.53;;;5.97;;
1206;SDS011;593;53.184;8.216;2023-04-24T08:21:01;5.93;;;5.17;;
1206;SDS011;593;53.184;8.216;2023-04-24T08:23:27;6.60;;;5.43;;
1206;SDS011;593;53.184;8.216;2023-04-24T08:25:53;6.10;;;5.50;;
1206;SDS011;593;53.184;8.216;2023-04-24T08:28:19;7.80;;;5.47;;
1206;SDS011;593;53.184;8.216;2023-04-24T08:30:45;5.20;;;4.70;;
1206;SDS011;593;53.184;8.216;2023-04-24T08:33:12;5.97;;;5.13;;
1206;SDS011;593;53.184;8.216;2023-04-24T08:35:38;5.00;;;4.50;;
1206;SDS011;593;53.184;8.216;2023-04-24T08:38:03;6.50;;;5.60;;
1206;SDS011;593;53.184;8.216;2023-04-24T08:40:29;29.93;;;16.20;;
1206;SDS011;593;53.184;8.216;2023-04-24T08:42:59;29.27;;;16.00;;
1206;SDS011;593;53.184;8.216;2023-04-24T08:45:25;19.00;;;11.30;;
1206;SDS011;593;53.184;8.216;2023-04-24T08:47:51;12.23;;;7.33;;
1206;SDS011;593;53.184;8.216;2023-04-24T08:50:18;8.57;;;5.90;;
1206;SDS011;593;53.184;8.216;2023-04-24T08:52:44;5.60;;;4.90;;
1206;SDS011;593;53.184;8.216;2023-04-24T08:55:10;9.23;;;5.63;;
1206;SDS011;593;53.184;8.216;2023-04-24T08:57:35;6.00;;;5.17;;
1206;SDS011;593;53.184;8.216;2023-04-24T09:00:03;5.90;;;5.30;;
1206;SDS011;593;53.184;8.216;2023-04-24T09:02:29;5.87;;;4.27;;
1206;SDS011;593;53.184;8.216;2023-04-24T09:04:55;5.00;;;4.33;;
1206;SDS011;593;53.184;8.216;2023-04-24T09:07:22;4.10;;;3.80;;
1206;SDS011;593;53.184;8.216;2023-04-24T09:09:50;6.97;;;4.10;;
1206;SDS011;593;53.184;8.216;2023-04-24T09:12:15;4.07;;;3.67;;
1206;SDS011;593;53.184;8.216;2023-04-24T09:14:42;4.23;;;3.83;;
1206;SDS011;593;53.184;8.216;2023-04-24T09:17:10;4.53;;;4.00;;
1206;SDS011;593;53.184;8.216;2023-04-24T09:19:35;4.90;;;4.17;;
1206;SDS011;593;53.184;8.216;2023-04-24T09:22:04;5.30;;;3.57;;
1206;SDS011;593;53.184;8.216;2023-04-24T09:24:31;7.17;;;5.43;;
1206;SDS011;593;53.184;8.216;2023-04-24T09:26:57;26.10;;;14.20;;
1206;SDS011;593;53.184;8.216;2023-04-24T09:29:29;9.80;;;6.70;;
1206;SDS011;593;53.184;8.216;2023-04-24T09:31:54;5.97;;;4.70;;
1206;SDS011;593;53.184;8.216;2023-04-24T09:34:23;4.40;;;3.83;;
1206;SDS011;593;53.184;8.216;2023-04-24T09:36:51;5.50;;;4.60;;
1206;SDS011;593;53.184;8.216;2023-04-24T09:39:17;5.07;;;4.67;;
1206;SDS011;593;53.184;8.216;2023-04-24T09:41:47;4.37;;;4.00;;
1206;SDS011;593;53.184;8.216;2023-04-24T09:44:25;5.33;;;3.70;;
1206;SDS011;593;53.184;8.216;2023-04-24T09:46:53;4.33;;;3.83;;
1206;SDS011;593;53.184;8.216;2023-04-24T09:49:23;4.80;;;4.33;;
1206;SDS011;593;53.184;8.216;2023-04-24T09:51:49;4.43;;;4.03;;
1206;SDS011;593;53.184;8.216;2023-04-24T09:54:18;4.67;;;4.27;;
1206;SDS011;593;53.184;8.216;2023-04-24T09:56:47;5.07;;;4.67;;
1206;SDS011;593;53.184;8.216;2023-04-24T09:59:15;5.20;;;4.80;;
1206;SDS011;593;53.184;8.216;2023-04-24T10:01:41;4.80;;;4.33;;
1206;SDS011;593;53.184;8.216;2023-04-24T10:04:16;4.40;;;3.80;;
1206;SDS011;593;53.184;8.216;2023-04-24T10:06:46;3.83;;;3.53;;
1206;SDS011;593;53.184;8.216;2023-04-24T10:09:14;3.67;;;3.37;;
1206;SDS011;593;53.184;8.216;2023-04-24T10:11:41;4.67;;;4.07;;
1206;SDS011;593;53.184;8.216;2023-04-24T10:14:14;3.70;;;3.40;;
1206;SDS011;593;53.184;8.216;2023-04-24T10:16:41;6.00;;;3.30;;
1206;SDS011;593;53.184;8.216;2023-04-24T10:19:08;3.33;;;3.10;;
1206;SDS011;593;53.184;8.216;2023-04-24T10:21:34;2.70;;;2.50;;
1206;SDS011;593;53.184;8.216;2023-04-24T10:24:00;4.57;;;2.97;;
1206;SDS011;593;53.184;8.216;2023-04-24T10:26:28;2.20;;;2.10;;
1206;SDS011;593;53.184;8.216;2023-04-24T10:28:54;4.00;;;2.60;;
1206;SDS011;593;53.184;8.216;2023-04-24T10:31:22;1.87;;;1.77;;
1206;SDS011;593;53.184;8.216;2023-04-24T10:33:48;2.00;;;1.87;;
1206;SDS011;593;53.184;8.216;2023-04-24T10:36:16;2.03;;;1.87;;
1206;SDS011;593;53.184;8.216;2023-04-24T10:38:42;2.03;;;1.93;;
1206;SDS011;593;53.184;8.216;2023-04-24T10:41:11;2.50;;;2.30;;
1206;SDS011;593;53.184;8.216;2023-04-24T10:43:44;3.37;;;2.20;;
1206;SDS011;593;53.184;8.216;2023-04-24T10:46:11;2.23;;;2.03;;
1206;SDS011;593;53.184;8.216;2023-04-24T10:48:44;1.70;;;1.60;;
1206;SDS011;593;53.184;8.216;2023-04-24T10:51:17;1.40;;;1.30;;
1206;SDS011;593;53.184;8.216;2023-04-24T10:53:42;2.83;;;1.63;;
1206;SDS011;593;53.184;8.216;2023-04-24T10:56:08;2.20;;;1.43;;
1206;SDS011;593;53.184;8.216;2023-04-24T10:58:36;1.53;;;1.33;;
1206;SDS011;593;53.184;8.216;2023-04-24T11:01:03;2.03;;;1.93;;
1206;SDS011;593;53.184;8.216;2023-04-24T11:03:29;1.33;;;1.23;;
1206;SDS011;593;53.184;8.216;2023-04-24T11:06:06;2.60;;;1.60;;
1206;SDS011;593;53.184;8.216;2023-04-24T11:08:40;1.93;;;1.73;;
1206;SDS011;593;53.184;8.216;2023-04-24T11:14:00;1.60;;;1.50;;
1206;SDS011;593;53.184;8.216;2023-04-24T11:16:32;2.47;;;1.93;;
1206;SDS011;593;53.184;8.216;2023-04-24T11:19:05;3.37;;;1.60;;
1206;SDS011;593;53.184;8.216;2023-04-24T11:21:38;1.33;;;1.27;;
1206;SDS011;593;53.184;8.216;2023-04-24T11:27:39;1.73;;;1.50;;
1206;SDS011;593;53.184;8.216;2023-04-24T11:34:48;1.77;;;1.67;;
1206;SDS011;593;53.184;8.216;2023-04-24T11:37:15;3.23;;;1.30;;
1206;SDS011;593;53.184;8.216;2023-04-24T11:39:40;1.93;;;1.83;;
1206;SDS011;593;53.184;8.216;2023-04-24T11:42:06;1.63;;;1.53;;
1206;SDS011;593;53.184;8.216;2023-04-24T11:44:33;1.77;;;1.60;;
1206;SDS011;593;53.184;8.216;2023-04-24T11:46:59;2.40;;;1.80;;
1206;SDS011;593;53.184;8.216;2023-04-24T11:49:24;2.00;;;1.60;;
1206;SDS011;593;53.184;8.216;2023-04-24T11:51:50;1.70;;;1.60;;
1206;SDS011;593;53.184;8.216;2023-04-24T11:54:15;1.40;;;1.27;;
1206;SDS011;593;53.184;8.216;2023-04-24T11:56:44;1.40;;;1.30;;
1206;SDS011;593;53.184;8.216;2023-04-24T11:59:11;2.17;;;1.40;;
1206;SDS011;593;53.184;8.216;2023-04-24T12:01:43;1.47;;;1.37;;
1206;SDS011;593;53.184;8.216;2023-04-24T12:04:11;2.00;;;1.90;;
1206;SDS011;593;53.184;8.216;2023-04-24T12:06:37;1.60;;;1.50;;
1206;SDS011;593;53.184;8.216;2023-04-24T12:09:02;2.13;;;1.97;;
1206;SDS011;593;53.184;8.216;2023-04-24T12:11:28;3.00;;;2.80;;
1206;SDS011;593;53.184;8.216;2023-04-24T12:13:54;4.40;;;4.00;;
1206;SDS011;593;53.184;8.216;2023-04-24T12:16:19;7.33;;;4.00;;
1206;SDS011;593;53.184;8.216;2023-04-24T12:18:45;5.63;;;5.10;;
1206;SDS011;593;53.184;8.216;2023-04-24T12:21:14;6.60;;;5.07;;
1206;SDS011;593;53.184;8.216;2023-04-24T12:23:54;8.83;;;5.77;;
1206;SDS011;593;53.184;8.216;2023-04-24T12:26:20;6.83;;;6.13;;
1206;SDS011;593;53.184;8.216;2023-04-24T12:28:48;7.10;;;6.30;;
1206;SDS011;593;53.184;8.216;2023-04-24T12:31:15;7.67;;;6.90;;
1206;SDS011;593;53.184;8.216;2023-04-24T12:33:45;6.53;;;5.93;;
1206;SDS011;593;53.184;8.216;2023-04-24T12:36:10;7.90;;;6.27;;
1206;SDS011;593;53.184;8.216;2023-04-24T12:38:37;7.97;;;7.03;;
1206;SDS011;593;53.184;8.216;2023-04-24T12:41:07;11.97;;;6.70;;
1206;SDS011;593;53.184;8.216;2023-04-24T12:43:34;8.90;;;6.37;;
1206;SDS011;593;53.184;8.216;2023-04-24T12:46:00;6.30;;;5.37;;
1206;SDS011;593;53.184;8.216;2023-04-24T12:48:26;6.63;;;5.83;;
1206;SDS011;593;53.184;8.216;2023-04-24T12:50:52;6.77;;;6.17;;
1206;SDS011;593;53.184;8.216;2023-04-24T12:53:18;5.83;;;5.33;;
1206;SDS011;593;53.184;8.216;2023-04-24T12:55:43;5.77;;;4.33;;
1206;SDS011;593;53.184;8.216;2023-04-24T12:58:09;7.67;;;3.80;;
1206;SDS011;593;53.184;8.216;2023-04-24T13:00:35;5.30;;;4.57;;
1206;SDS011;593;53.184;8.216;2023-04-24T13:03:01;4.40;;;4.03;;
1206;SDS011;593;53.184;8.216;2023-04-24T13:05:27;4.93;;;4.23;;
1206;SDS011;593;53.184;8.216;2023-04-24T13:07:52;7.73;;;4.57;;
1206;SDS011;593;53.184;8.216;2023-04-24T13:10:18;6.13;;;4.17;;
1206;SDS011;593;53.184;8.216;2023-04-24T13:12:44;4.87;;;3.67;;
1206;SDS011;593;53.184;8.216;2023-04-24T13:15:11;5.40;;;3.93;;
1206;SDS011;593;53.184;8.216;2023-04-24T13:17:36;8.20;;;4.73;;
1206;SDS011;593;53.184;8.216;2023-04-24T13:20:02;4.97;;;4.47;;
1206;SDS011;593;53.184;8.216;2023-04-24T13:22:27;5.07;;;4.53;;
1206;SDS011;593;53.184;8.216;2023-04-24T13:24:53;4.93;;;4.43;;
1206;SDS011;593;53.184;8.216;2023-04-24T13:27:18;4.80;;;4.30;;
1206;SDS011;593;53.184;8.216;2023-04-24T13:29:43;4.90;;;4.17;;
1206;SDS011;593;53.184;8.216;2023-04-24T13:32:09;4.20;;;3.87;;
1206;SDS011;593;53.184;8.216;2023-04-24T13:34:35;4.00;;;3.60;;
1206;SDS011;593;53.184;8.216;2023-04-24T13:37:01;6.07;;;4.00;;
1206;SDS011;593;53.184;8.216;2023-04-24T13:39:27;3.73;;;3.33;;
1206;SDS011;593;53.184;8.216;2023-04-24T13:41:52;4.27;;;3.90;;
1206;SDS011;593;53.184;8.216;2023-04-24T13:44:20;4.10;;;3.70;;
1206;SDS011;593;53.184;8.216;2023-04-24T13:46:47;5.10;;;3.73;;
1206;SDS011;593;53.184;8.216;2023-04-24T13:49:14;6.93;;;3.23;;
1206;SDS011;593;53.184;8.216;2023-04-24T13:51:41;4.20;;;3.30;;
1206;SDS011;593;53.184;8.216;2023-04-24T13:54:06;6.63;;;3.17;;
1206;SDS011;593;53.184;8.216;2023-04-24T13:56:32;5.93;;;3.30;;
1206;SDS011;593;53.184;8.216;2023-04-24T13:58:57;7.07;;;3.57;;
1206;SDS011;593;53.184;8.216;2023-04-24T14:01:23;7.87;;;3.83;;
1206;SDS011;593;53.184;8.216;2023-04-24T14:03:50;3.27;;;2.90;;
1206;SDS011;593;53.184;8.216;2023-04-24T14:06:16;3.50;;;3.20;;
1206;SDS011;593;53.184;8.216;2023-04-24T14:08:42;3.03;;;2.83;;
1206;SDS011;593;53.184;8.216;2023-04-24T14:11:07;2.90;;;2.70;;
1206;SDS011;593;53.184;8.216;2023-04-24T14:13:33;5.67;;;3.50;;
1206;SDS011;593;53.184;8.216;2023-04-24T14:15:59;12.27;;;3.03;;
1206;SDS011;593;53.184;8.216;2023-04-24T14:18:24;4.10;;;3.07;;
1206;SDS011;593;53.184;8.216;2023-04-24T14:20:50;4.77;;;3.73;;
1206;SDS011;593;53.184;8.216;2023-04-24T14:23:15;6.37;;;3.57;;
1206;SDS011;593;53.184;8.216;2023-04-24T14:25:40;7.73;;;3.77;;
1206;SDS011;593;53.184;8.216;2023-04-24T14:28:06;4.17;;;3.77;;
1206;SDS011;593;53.184;8.216;2023-04-24T14:30:32;4.00;;;3.33;;
1206;SDS011;593;53.184;8.216;2023-04-24T14:32:57;5.17;;;3.33;;
1206;SDS011;593;53.184;8.216;2023-04-24T14:35:22;3.40;;;2.53;;
1206;SDS011;593;53.184;8.216;2023-04-24T14:37:48;4.30;;;2.20;;
1206;SDS011;593;53.184;8.216;2023-04-24T14:40:14;3.43;;;2.07;;
1206;SDS011;593;53.184;8.216;2023-04-24T14:42:39;4.83;;;1.83;;
1206;SDS011;593;53.184;8.216;2023-04-24T14:45:05;4.10;;;2.80;;
1206;SDS011;593;53.184;8.216;2023-04-24T14:47:31;3.63;;;1.90;;
1206;SDS011;593;53.184;8.216;2023-04-24T14:49:57;4.27;;;1.93;;
1206;SDS011;593;53.184;8.216;2023-04-24T14:52:23;2.00;;;1.70;;
1206;SDS011;593;53.184;8.216;2023-04-24T14:54:48;1.50;;;1.40;;
1206;SDS011;593;53.184;8.216;2023-04-24T14:57:14;1.60;;;1.27;;
1206;SDS011;593;53.184;8.216;2023-04-24T14:59:39;2.93;;;1.17;;
1206;SDS011;593;53.184;8.216;2023-04-24T15:02:05;2.67;;;1.30;;
1206;SDS011;593;53.184;8.216;2023-04-24T15:04:31;2.13;;;1.30;;
1206;SDS011;593;53.184;8.216;2023-04-24T15:06:56;2.20;;;1.40;;
1206;SDS011;593;53.184;8.216;2023-04-24T15:09:22;1.97;;;1.07;;
1206;SDS011;593;53.184;8.216;2023-04-24T15:11:50;4.47;;;1.37;;
1206;SDS011;593;53.184;8.216;2023-04-24T15:14:16;1.33;;;1.23;;
1206;SDS011;593;53.184;8.216;2023-04-24T15:16:42;6.13;;;1.80;;
1206;SDS011;593;53.184;8.216;2023-04-24T15:19:07;2.13;;;1.57;;
1206;SDS011;593;53.184;8.216;2023-04-24T15:21:33;3.57;;;1.50;;
1206;SDS011;593;53.184;8.216;2023-04-24T15:23:58;3.07;;;1.50;;
1206;SDS011;593;53.184;8.216;2023-04-24T15:26:24;2.60;;;1.50;;
1206;SDS011;593;53.184;8.216;2023-04-24T15:28:50;2.30;;;1.40;;
1206;SDS011;593;53.184;8.216;2023-04-24T15:31:16;1.47;;;1.20;;
1206;SDS011;593;53.184;8.216;2023-04-24T15:33:42;3.10;;;1.57;;